sensor_id;sensor_type;location;lat;lon;timestamp;temperature;humidity
53272;DHT22;39160;48.580;7.756;2023-07-22T00:00:28;22.30;92.20
53272;DHT22;39160;48.580;7.756;2023-07-22T00:05:19;22.20;92.30
53272;DHT22;39160;48.580;7.756;2023-07-22T00:10:14;22.10;92.40
53272;DHT22;39160;48.580;7.756;2023-07-22T00:15:05;22.20;92.40
53272;DHT22;39160;48.580;7.756;2023-07-22T00:19:56;22.10;92.60
53272;DHT22;39160;48.580;7.756;2023-07-22T00:24:47;22.00;92.80
53272;DHT22;39160;48.580;7.756;2023-07-22T00:29:38;22.00;92.80
53272;DHT22;39160;48.580;7.756;2023-07-22T00:34:28;21.90;92.80
53272;DHT22;39160;48.580;7.756;2023-07-22T00:39:19;21.80;93.00
53272;DHT22;39160;48.580;7.756;2023-07-22T00:44:11;21.80;92.90
53272;DHT22;39160;48.580;7.756;2023-07-22T00:49:07;21.70;93.00
53272;DHT22;39160;48.580;7.756;2023-07-22T00:53:58;21.60;93.00
53272;DHT22;39160;48.580;7.756;2023-07-22T00:58:49;21.70;93.00
53272;DHT22;39160;48.580;7.756;2023-07-22T01:03:39;21.70;92.90
53272;DHT22;39160;48.580;7.756;2023-07-22T01:08:31;21.60;93.00
53272;DHT22;39160;48.580;7.756;2023-07-22T01:13:22;21.40;93.10
53272;DHT22;39160;48.580;7.756;2023-07-22T01:18:12;21.30;93.40
53272;DHT22;39160;48.580;7.756;2023-07-22T01:23:03;21.40;93.40
53272;DHT22;39160;48.580;7.756;2023-07-22T01:27:54;21.30;93.40
53272;DHT22;39160;48.580;7.756;2023-07-22T01:32:46;21.20;93.40
53272;DHT22;39160;48.580;7.756;2023-07-22T01:37:37;21.20;93.70
53272;DHT22;39160;48.580;7.756;2023-07-22T01:42:27;21.10;93.60
53272;DHT22;39160;48.580;7.756;2023-07-22T01:47:18;21.10;93.80
53272;DHT22;39160;48.580;7.756;2023-07-22T01:52:09;21.10;93.70
53272;DHT22;39160;48.580;7.756;2023-07-22T01:56:59;21.10;93.70
53272;DHT22;39160;48.580;7.756;2023-07-22T02:01:50;21.10;93.60
53272;DHT22;39160;48.580;7.756;2023-07-22T02:06:41;20.90;93.90
53272;DHT22;39160;48.580;7.756;2023-07-22T02:11:32;20.90;93.90
53272;DHT22;39160;48.580;7.756;2023-07-22T02:16:23;20.90;93.80
53272;DHT22;39160;48.580;7.756;2023-07-22T02:21:14;20.80;94.00
53272;DHT22;39160;48.580;7.756;2023-07-22T02:26:04;20.90;93.80
53272;DHT22;39160;48.580;7.756;2023-07-22T02:30:55;20.80;94.10
53272;DHT22;39160;48.580;7.756;2023-07-22T02:35:47;20.70;94.40
53272;DHT22;39160;48.580;7.756;2023-07-22T02:40:38;20.60;94.30
53272;DHT22;39160;48.580;7.756;2023-07-22T02:45:29;20.60;94.60
53272;DHT22;39160;48.580;7.756;2023-07-22T02:50:20;20.60;94.50
53272;DHT22;39160;48.580;7.756;2023-07-22T02:55:15;20.50;94.50
53272;DHT22;39160;48.580;7.756;2023-07-22T03:00:07;20.50;94.60
53272;DHT22;39160;48.580;7.756;2023-07-22T03:04:58;20.50;94.60
53272;DHT22;39160;48.580;7.756;2023-07-22T03:09:49;20.50;94.60
53272;DHT22;39160;48.580;7.756;2023-07-22T03:14:39;20.40;95.00
53272;DHT22;39160;48.580;7.756;2023-07-22T03:19:30;20.40;95.00
53272;DHT22;39160;48.580;7.756;2023-07-22T03:24:21;20.30;95.30
53272;DHT22;39160;48.580;7.756;2023-07-22T03:29:11;20.30;95.30
53272;DHT22;39160;48.580;7.756;2023-07-22T03:34:02;20.30;95.30
53272;DHT22;39160;48.580;7.756;2023-07-22T03:38:53;20.10;95.40
53272;DHT22;39160;48.580;7.756;2023-07-22T03:43:43;20.10;95.80
53272;DHT22;39160;48.580;7.756;2023-07-22T03:48:34;20.00;95.80
53272;DHT22;39160;48.580;7.756;2023-07-22T03:53:24;20.20;95.70
53272;DHT22;39160;48.580;7.756;2023-07-22T03:58:15;20.10;95.70
53272;DHT22;39160;48.580;7.756;2023-07-22T04:03:06;20.00;96.10
53272;DHT22;39160;48.580;7.756;2023-07-22T04:07:57;19.90;96.10
53272;DHT22;39160;48.580;7.756;2023-07-22T04:12:47;19.80;96.20
53272;DHT22;39160;48.580;7.756;2023-07-22T04:17:39;19.60;96.50
53272;DHT22;39160;48.580;7.756;2023-07-22T04:22:29;19.60;96.60
53272;DHT22;39160;48.580;7.756;2023-07-22T04:27:20;19.60;96.60
53272;DHT22;39160;48.580;7.756;2023-07-22T04:32:10;19.60;96.70
53272;DHT22;39160;48.580;7.756;2023-07-22T04:37:01;19.60;96.60
53272;DHT22;39160;48.580;7.756;2023-07-22T04:41:52;19.50;96.70
53272;DHT22;39160;48.580;7.756;2023-07-22T04:46:42;19.40;96.70
53272;DHT22;39160;48.580;7.756;2023-07-22T04:51:33;19.40;96.80
53272;DHT22;39160;48.580;7.756;2023-07-22T04:56:24;19.30;96.90
53272;DHT22;39160;48.580;7.756;2023-07-22T05:01:15;19.40;96.80
53272;DHT22;39160;48.580;7.756;2023-07-22T05:06:05;19.40;96.80
53272;DHT22;39160;48.580;7.756;2023-07-22T05:10:56;19.60;96.80
53272;DHT22;39160;48.580;7.756;2023-07-22T05:15:46;19.50;96.80
53272;DHT22;39160;48.580;7.756;2023-07-22T05:20:38;19.50;96.90
53272;DHT22;39160;48.580;7.756;2023-07-22T05:25:29;19.50;97.10
53272;DHT22;39160;48.580;7.756;2023-07-22T05:30:20;19.60;97.10
53272;DHT22;39160;48.580;7.756;2023-07-22T05:35:10;19.60;97.20
53272;DHT22;39160;48.580;7.756;2023-07-22T05:40:01;19.80;97.30
53272;DHT22;39160;48.580;7.756;2023-07-22T05:44:54;19.80;97.10
53272;DHT22;39160;48.580;7.756;2023-07-22T05:49:44;19.70;97.10
53272;DHT22;39160;48.580;7.756;2023-07-22T05:54:35;19.90;97.10
53272;DHT22;39160;48.580;7.756;2023-07-22T05:59:25;20.00;96.90
53272;DHT22;39160;48.580;7.756;2023-07-22T06:04:16;20.00;97.00
53272;DHT22;39160;48.580;7.756;2023-07-22T06:09:07;20.00;96.90
53272;DHT22;39160;48.580;7.756;2023-07-22T06:13:57;20.00;97.00
53272;DHT22;39160;48.580;7.756;2023-07-22T06:18:48;20.10;96.90
53272;DHT22;39160;48.580;7.756;2023-07-22T06:23:38;20.10;96.90
53272;DHT22;39160;48.580;7.756;2023-07-22T06:28:29;20.20;96.90
53272;DHT22;39160;48.580;7.756;2023-07-22T06:33:20;20.20;97.00
53272;DHT22;39160;48.580;7.756;2023-07-22T06:38:10;20.20;97.00
53272;DHT22;39160;48.580;7.756;2023-07-22T06:43:01;20.30;96.90
53272;DHT22;39160;48.580;7.756;2023-07-22T06:47:51;20.30;96.90
53272;DHT22;39160;48.580;7.756;2023-07-22T06:52:42;20.30;96.80
53272;DHT22;39160;48.580;7.756;2023-07-22T06:57:33;20.40;96.90
53272;DHT22;39160;48.580;7.756;2023-07-22T07:02:24;20.30;97.00
53272;DHT22;39160;48.580;7.756;2023-07-22T07:07:15;20.30;97.00
53272;DHT22;39160;48.580;7.756;2023-07-22T07:12:06;20.40;97.10
53272;DHT22;39160;48.580;7.756;2023-07-22T07:16:57;20.50;97.10
53272;DHT22;39160;48.580;7.756;2023-07-22T07:21:47;20.60;97.20
53272;DHT22;39160;48.580;7.756;2023-07-22T07:26:38;20.60;97.30
53272;DHT22;39160;48.580;7.756;2023-07-22T07:31:28;20.70;97.30
53272;DHT22;39160;48.580;7.756;2023-07-22T07:36:19;20.80;97.30
53272;DHT22;39160;48.580;7.756;2023-07-22T07:41:10;20.90;97.30
53272;DHT22;39160;48.580;7.756;2023-07-22T07:46:25;21.10;97.20
53272;DHT22;39160;48.580;7.756;2023-07-22T07:51:17;21.20;97.30
53272;DHT22;39160;48.580;7.756;2023-07-22T07:56:09;21.20;97.30
53272;DHT22;39160;48.580;7.756;2023-07-22T08:01:00;21.10;97.40
53272;DHT22;39160;48.580;7.756;2023-07-22T08:05:50;21.20;97.50
53272;DHT22;39160;48.580;7.756;2023-07-22T08:10:41;21.20;97.50
53272;DHT22;39160;48.580;7.756;2023-07-22T08:15:33;21.30;97.50
53272;DHT22;39160;48.580;7.756;2023-07-22T08:20:24;21.40;97.40
53272;DHT22;39160;48.580;7.756;2023-07-22T08:25:15;21.50;97.40
53272;DHT22;39160;48.580;7.756;2023-07-22T08:30:06;21.40;97.30
53272;DHT22;39160;48.580;7.756;2023-07-22T08:34:57;21.50;97.30
53272;DHT22;39160;48.580;7.756;2023-07-22T08:39:48;21.60;97.30
53272;DHT22;39160;48.580;7.756;2023-07-22T08:44:42;21.60;97.20
53272;DHT22;39160;48.580;7.756;2023-07-22T08:49:34;21.70;97.20
53272;DHT22;39160;48.580;7.756;2023-07-22T08:54:25;21.70;97.20
53272;DHT22;39160;48.580;7.756;2023-07-22T08:59:17;21.80;97.00
53272;DHT22;39160;48.580;7.756;2023-07-22T09:04:08;21.90;97.00
53272;DHT22;39160;48.580;7.756;2023-07-22T09:08:59;22.00;96.90
53272;DHT22;39160;48.580;7.756;2023-07-22T09:13:51;22.20;96.90
53272;DHT22;39160;48.580;7.756;2023-07-22T09:18:43;22.30;96.60
53272;DHT22;39160;48.580;7.756;2023-07-22T09:23:36;22.40;96.40
53272;DHT22;39160;48.580;7.756;2023-07-22T09:28:27;22.40;96.30
53272;DHT22;39160;48.580;7.756;2023-07-22T09:33:21;22.50;96.30
53272;DHT22;39160;48.580;7.756;2023-07-22T09:38:13;22.50;96.20
53272;DHT22;39160;48.580;7.756;2023-07-22T09:43:08;22.60;96.10
53272;DHT22;39160;48.580;7.756;2023-07-22T09:47:59;22.70;95.70
53272;DHT22;39160;48.580;7.756;2023-07-22T09:52:53;22.70;95.50
53272;DHT22;39160;48.580;7.756;2023-07-22T09:57:46;22.80;95.10
53272;DHT22;39160;48.580;7.756;2023-07-22T10:02:39;22.90;94.80
53272;DHT22;39160;48.580;7.756;2023-07-22T10:07:33;23.00;94.60
53272;DHT22;39160;48.580;7.756;2023-07-22T10:12:27;23.10;94.30
53272;DHT22;39160;48.580;7.756;2023-07-22T10:17:18;23.10;94.20
53272;DHT22;39160;48.580;7.756;2023-07-22T10:22:09;23.30;93.90
53272;DHT22;39160;48.580;7.756;2023-07-22T10:27:00;23.40;93.40
53272;DHT22;39160;48.580;7.756;2023-07-22T10:31:53;23.40;93.10
53272;DHT22;39160;48.580;7.756;2023-07-22T10:36:47;23.50;92.70
53272;DHT22;39160;48.580;7.756;2023-07-22T10:41:38;23.50;92.40
53272;DHT22;39160;48.580;7.756;2023-07-22T10:46:34;23.60;92.10
53272;DHT22;39160;48.580;7.756;2023-07-22T10:51:35;23.60;91.60
53272;DHT22;39160;48.580;7.756;2023-07-22T10:56:26;23.70;91.30
53272;DHT22;39160;48.580;7.756;2023-07-22T11:01:31;23.60;91.20
53272;DHT22;39160;48.580;7.756;2023-07-22T11:06:22;23.60;91.00
53272;DHT22;39160;48.580;7.756;2023-07-22T11:11:13;23.70;91.10
53272;DHT22;39160;48.580;7.756;2023-07-22T11:16:04;23.80;90.90
53272;DHT22;39160;48.580;7.756;2023-07-22T11:20:54;23.70;90.50
53272;DHT22;39160;48.580;7.756;2023-07-22T11:25:45;23.70;90.30
53272;DHT22;39160;48.580;7.756;2023-07-22T11:30:36;23.80;90.00
53272;DHT22;39160;48.580;7.756;2023-07-22T11:35:28;23.80;90.10
53272;DHT22;39160;48.580;7.756;2023-07-22T11:40:18;23.90;89.20
53272;DHT22;39160;48.580;7.756;2023-07-22T11:45:10;23.90;88.70
53272;DHT22;39160;48.580;7.756;2023-07-22T11:50:01;24.00;88.40
53272;DHT22;39160;48.580;7.756;2023-07-22T11:54:51;24.30;88.00
53272;DHT22;39160;48.580;7.756;2023-07-22T11:59:46;24.50;87.30
53272;DHT22;39160;48.580;7.756;2023-07-22T12:04:38;24.30;86.90
53272;DHT22;39160;48.580;7.756;2023-07-22T12:09:28;24.30;86.70
53272;DHT22;39160;48.580;7.756;2023-07-22T12:14:19;24.30;86.40
53272;DHT22;39160;48.580;7.756;2023-07-22T12:19:11;24.30;86.10
53272;DHT22;39160;48.580;7.756;2023-07-22T12:24:02;24.50;86.00
53272;DHT22;39160;48.580;7.756;2023-07-22T12:28:54;24.80;84.90
53272;DHT22;39160;48.580;7.756;2023-07-22T12:33:45;24.90;84.40
53272;DHT22;39160;48.580;7.756;2023-07-22T12:38:36;24.90;83.80
53272;DHT22;39160;48.580;7.756;2023-07-22T12:43:26;25.00;83.40
53272;DHT22;39160;48.580;7.756;2023-07-22T12:48:17;25.10;83.00
53272;DHT22;39160;48.580;7.756;2023-07-22T12:53:08;25.30;82.60
53272;DHT22;39160;48.580;7.756;2023-07-22T12:57:58;25.50;81.90
53272;DHT22;39160;48.580;7.756;2023-07-22T13:02:49;25.60;81.00
53272;DHT22;39160;48.580;7.756;2023-07-22T13:07:40;25.70;80.70
53272;DHT22;39160;48.580;7.756;2023-07-22T13:12:30;25.80;80.40
53272;DHT22;39160;48.580;7.756;2023-07-22T13:17:21;25.80;79.90
53272;DHT22;39160;48.580;7.756;2023-07-22T13:22:11;25.90;78.90
53272;DHT22;39160;48.580;7.756;2023-07-22T13:27:03;26.20;78.20
53272;DHT22;39160;48.580;7.756;2023-07-22T13:31:54;26.30;77.30
53272;DHT22;39160;48.580;7.756;2023-07-22T13:36:44;26.40;76.60
53272;DHT22;39160;48.580;7.756;2023-07-22T13:41:35;26.60;76.50
53272;DHT22;39160;48.580;7.756;2023-07-22T13:46:25;26.70;75.40
53272;DHT22;39160;48.580;7.756;2023-07-22T13:51:16;26.80;74.90
53272;DHT22;39160;48.580;7.756;2023-07-22T13:56:07;26.90;74.20
53272;DHT22;39160;48.580;7.756;2023-07-22T14:00:57;27.10;73.90
53272;DHT22;39160;48.580;7.756;2023-07-22T14:05:48;27.20;73.60
53272;DHT22;39160;48.580;7.756;2023-07-22T14:10:38;27.20;73.10
53272;DHT22;39160;48.580;7.756;2023-07-22T14:15:29;27.00;73.10
53272;DHT22;39160;48.580;7.756;2023-07-22T14:20:20;26.80;72.90
53272;DHT22;39160;48.580;7.756;2023-07-22T14:25:10;26.70;72.80
53272;DHT22;39160;48.580;7.756;2023-07-22T14:30:02;26.60;72.60
53272;DHT22;39160;48.580;7.756;2023-07-22T14:34:55;26.60;72.40
53272;DHT22;39160;48.580;7.756;2023-07-22T14:39:45;26.60;72.20
53272;DHT22;39160;48.580;7.756;2023-07-22T14:44:36;26.70;72.10
53272;DHT22;39160;48.580;7.756;2023-07-22T14:49:27;26.80;72.00
53272;DHT22;39160;48.580;7.756;2023-07-22T14:54:17;27.00;71.80
53272;DHT22;39160;48.580;7.756;2023-07-22T14:59:08;27.00;71.60
53272;DHT22;39160;48.580;7.756;2023-07-22T15:03:59;27.00;71.70
53272;DHT22;39160;48.580;7.756;2023-07-22T15:08:49;27.10;71.50
53272;DHT22;39160;48.580;7.756;2023-07-22T15:13:40;27.60;71.40
53272;DHT22;39160;48.580;7.756;2023-07-22T15:18:30;27.50;71.30
53272;DHT22;39160;48.580;7.756;2023-07-22T15:23:21;27.80;71.10
53272;DHT22;39160;48.580;7.756;2023-07-22T15:28:12;28.20;70.90
53272;DHT22;39160;48.580;7.756;2023-07-22T15:33:02;28.50;70.20
53272;DHT22;39160;48.580;7.756;2023-07-22T15:37:53;29.00;69.60
53272;DHT22;39160;48.580;7.756;2023-07-22T15:42:44;29.10;69.00
53272;DHT22;39160;48.580;7.756;2023-07-22T15:47:35;29.00;68.70
53272;DHT22;39160;48.580;7.756;2023-07-22T15:52:25;29.90;68.20
53272;DHT22;39160;48.580;7.756;2023-07-22T15:57:16;29.90;67.60
53272;DHT22;39160;48.580;7.756;2023-07-22T16:02:07;30.20;67.10
53272;DHT22;39160;48.580;7.756;2023-07-22T16:06:57;30.40;66.50
53272;DHT22;39160;48.580;7.756;2023-07-22T16:11:48;30.70;66.20
53272;DHT22;39160;48.580;7.756;2023-07-22T16:16:38;30.90;65.70
53272;DHT22;39160;48.580;7.756;2023-07-22T16:21:29;30.50;65.00
53272;DHT22;39160;48.580;7.756;2023-07-22T16:26:20;30.50;64.90
53272;DHT22;39160;48.580;7.756;2023-07-22T16:31:10;30.50;64.70
53272;DHT22;39160;48.580;7.756;2023-07-22T16:36:02;30.30;64.30
53272;DHT22;39160;48.580;7.756;2023-07-22T16:40:53;30.40;64.30
53272;DHT22;39160;48.580;7.756;2023-07-22T16:45:44;30.40;63.80
53272;DHT22;39160;48.580;7.756;2023-07-22T16:50:34;31.00;63.40
53272;DHT22;39160;48.580;7.756;2023-07-22T16:55:25;31.40;63.10
53272;DHT22;39160;48.580;7.756;2023-07-22T17:00:16;31.30;62.70
53272;DHT22;39160;48.580;7.756;2023-07-22T17:05:06;31.10;62.60
53272;DHT22;39160;48.580;7.756;2023-07-22T17:09:57;31.00;62.50
53272;DHT22;39160;48.580;7.756;2023-07-22T17:14:48;31.40;62.00
53272;DHT22;39160;48.580;7.756;2023-07-22T17:19:38;31.30;61.90
53272;DHT22;39160;48.580;7.756;2023-07-22T17:24:29;31.20;61.90
53272;DHT22;39160;48.580;7.756;2023-07-22T17:29:20;31.50;61.60
53272;DHT22;39160;48.580;7.756;2023-07-22T17:34:10;31.30;61.20
53272;DHT22;39160;48.580;7.756;2023-07-22T17:39:01;31.40;61.30
53272;DHT22;39160;48.580;7.756;2023-07-22T17:43:51;31.60;61.00
53272;DHT22;39160;48.580;7.756;2023-07-22T17:48:42;31.30;61.00
53272;DHT22;39160;48.580;7.756;2023-07-22T17:53:32;30.70;61.10
53272;DHT22;39160;48.580;7.756;2023-07-22T17:58:23;30.20;61.40
53272;DHT22;39160;48.580;7.756;2023-07-22T18:03:14;29.90;61.30
53272;DHT22;39160;48.580;7.756;2023-07-22T18:08:04;29.80;61.50
53272;DHT22;39160;48.580;7.756;2023-07-22T18:12:55;29.70;61.40
53272;DHT22;39160;48.580;7.756;2023-07-22T18:17:46;29.50;61.50
53272;DHT22;39160;48.580;7.756;2023-07-22T18:22:36;29.40;61.60
53272;DHT22;39160;48.580;7.756;2023-07-22T18:27:27;29.40;61.70
53272;DHT22;39160;48.580;7.756;2023-07-22T18:32:17;29.30;62.00
53272;DHT22;39160;48.580;7.756;2023-07-22T18:37:08;29.30;62.00
53272;DHT22;39160;48.580;7.756;2023-07-22T18:41:59;29.30;62.10
53272;DHT22;39160;48.580;7.756;2023-07-22T18:46:49;29.20;62.40
53272;DHT22;39160;48.580;7.756;2023-07-22T18:51:40;29.10;62.70
53272;DHT22;39160;48.580;7.756;2023-07-22T18:56:31;29.00;63.10
53272;DHT22;39160;48.580;7.756;2023-07-22T19:01:21;28.80;63.50
53272;DHT22;39160;48.580;7.756;2023-07-22T19:06:12;28.80;63.70
53272;DHT22;39160;48.580;7.756;2023-07-22T19:11:03;28.70;64.10
53272;DHT22;39160;48.580;7.756;2023-07-22T19:15:55;28.70;64.30
53272;DHT22;39160;48.580;7.756;2023-07-22T19:20:57;28.60;64.60
53272;DHT22;39160;48.580;7.756;2023-07-22T19:25:48;28.60;64.60
53272;DHT22;39160;48.580;7.756;2023-07-22T19:30:39;28.60;64.80
53272;DHT22;39160;48.580;7.756;2023-07-22T19:35:29;28.60;64.80
53272;DHT22;39160;48.580;7.756;2023-07-22T19:40:20;28.60;64.90
53272;DHT22;39160;48.580;7.756;2023-07-22T19:45:11;28.60;65.20
53272;DHT22;39160;48.580;7.756;2023-07-22T19:50:02;28.60;65.40
53272;DHT22;39160;48.580;7.756;2023-07-22T19:54:53;28.50;65.60
53272;DHT22;39160;48.580;7.756;2023-07-22T19:59:43;28.50;65.80
53272;DHT22;39160;48.580;7.756;2023-07-22T20:04:34;28.50;65.90
53272;DHT22;39160;48.580;7.756;2023-07-22T20:09:25;28.40;66.00
53272;DHT22;39160;48.580;7.756;2023-07-22T20:14:16;28.30;66.20
53272;DHT22;39160;48.580;7.756;2023-07-22T20:19:06;28.30;66.50
53272;DHT22;39160;48.580;7.756;2023-07-22T20:23:57;28.20;66.80
53272;DHT22;39160;48.580;7.756;2023-07-22T20:28:47;28.20;66.90
53272;DHT22;39160;48.580;7.756;2023-07-22T20:33:38;28.10;67.30
53272;DHT22;39160;48.580;7.756;2023-07-22T20:38:28;28.00;67.50
53272;DHT22;39160;48.580;7.756;2023-07-22T20:43:20;28.00;67.80
53272;DHT22;39160;48.580;7.756;2023-07-22T20:48:10;27.80;68.10
53272;DHT22;39160;48.580;7.756;2023-07-22T20:53:01;27.80;68.30
53272;DHT22;39160;48.580;7.756;2023-07-22T20:57:52;27.70;68.50
53272;DHT22;39160;48.580;7.756;2023-07-22T21:02:42;27.60;68.80
53272;DHT22;39160;48.580;7.756;2023-07-22T21:07:33;27.60;69.30
53272;DHT22;39160;48.580;7.756;2023-07-22T21:12:24;27.50;69.50
53272;DHT22;39160;48.580;7.756;2023-07-22T21:17:15;27.50;69.70
53272;DHT22;39160;48.580;7.756;2023-07-22T21:22:06;27.40;70.00
53272;DHT22;39160;48.580;7.756;2023-07-22T21:26:57;27.40;70.20
53272;DHT22;39160;48.580;7.756;2023-07-22T21:31:47;27.20;70.60
53272;DHT22;39160;48.580;7.756;2023-07-22T21:36:38;27.20;70.90
53272;DHT22;39160;48.580;7.756;2023-07-22T21:41:28;27.10;71.30
53272;DHT22;39160;48.580;7.756;2023-07-22T21:46:19;27.00;71.70
53272;DHT22;39160;48.580;7.756;2023-07-22T21:51:10;27.00;71.90
53272;DHT22;39160;48.580;7.756;2023-07-22T21:56:00;26.90;72.30
53272;DHT22;39160;48.580;7.756;2023-07-22T22:00:51;26.80;72.40
53272;DHT22;39160;48.580;7.756;2023-07-22T22:05:42;26.80;72.50
53272;DHT22;39160;48.580;7.756;2023-07-22T22:10:34;26.80;72.50
53272;DHT22;39160;48.580;7.756;2023-07-22T22:15:25;26.70;73.00
53272;DHT22;39160;48.580;7.756;2023-07-22T22:20:15;26.50;73.30
53272;DHT22;39160;48.580;7.756;2023-07-22T22:25:06;26.50;73.40
53272;DHT22;39160;48.580;7.756;2023-07-22T22:29:58;26.50;73.70
53272;DHT22;39160;48.580;7.756;2023-07-22T22:34:48;26.40;73.80
53272;DHT22;39160;48.580;7.756;2023-07-22T22:39:39;26.30;74.00
53272;DHT22;39160;48.580;7.756;2023-07-22T22:44:29;26.20;74.50
53272;DHT22;39160;48.580;7.756;2023-07-22T22:49:20;26.10;74.60
53272;DHT22;39160;48.580;7.756;2023-07-22T22:54:11;26.10;74.70
53272;DHT22;39160;48.580;7.756;2023-07-22T22:59:04;26.10;74.70
53272;DHT22;39160;48.580;7.756;2023-07-22T23:03:59;25.90;74.90
53272;DHT22;39160;48.580;7.756;2023-07-22T23:08:50;25.90;75.20
53272;DHT22;39160;48.580;7.756;2023-07-22T23:13:40;25.90;75.50
53272;DHT22;39160;48.580;7.756;2023-07-22T23:18:31;25.90;75.30
53272;DHT22;39160;48.580;7.756;2023-07-22T23:23:22;25.80;75.40
53272;DHT22;39160;48.580;7.756;2023-07-22T23:28:12;25.70;76.00
53272;DHT22;39160;48.580;7.756;2023-07-22T23:33:03;25.70;76.10
53272;DHT22;39160;48.580;7.756;2023-07-22T23:37:54;25.70;76.20
53272;DHT22;39160;48.580;7.756;2023-07-22T23:42:44;25.60;76.40
53272;DHT22;39160;48.580;7.756;2023-07-22T23:47:35;25.60;76.60
53272;DHT22;39160;48.580;7.756;2023-07-22T23:52:26;25.60;76.70
53272;DHT22;39160;48.580;7.756;2023-07-22T23:57:16;25.50;76.80
